sensor_id;sensor_type;location;lat;lon;timestamp;P1;durP1;ratioP1;P2;durP2;ratioP2
1054;SDS011;516;51.482;7.120;2023-11-18T00:00:18;65.50;;;27.70;;
1054;SDS011;516;51.482;7.120;2023-11-18T00:02:44;66.37;;;30.73;;
1054;SDS011;516;51.482;7.120;2023-11-18T00:05:11;69.33;;;29.27;;
1054;SDS011;516;51.482;7.120;2023-11-18T00:07:38;65.03;;;28.10;;
1054;SDS011;516;51.482;7.120;2023-11-18T00:10:05;62.40;;;29.00;;
1054;SDS011;516;51.482;7.120;2023-11-18T00:12:31;68.77;;;28.97;;
1054;SDS011;516;51.482;7.120;2023-11-18T00:15:03;58.27;;;26.30;;
1054;SDS011;516;51.482;7.120;2023-11-18T00:17:30;51.03;;;27.73;;
1054;SDS011;516;51.482;7.120;2023-11-18T00:19:57;62.57;;;28.90;;
1054;SDS011;516;51.482;7.120;2023-11-18T00:22:23;67.43;;;25.60;;
1054;SDS011;516;51.482;7.120;2023-11-18T00:24:49;53.80;;;26.97;;
1054;SDS011;516;51.482;7.120;2023-11-18T00:27:15;49.97;;;25.77;;
1054;SDS011;516;51.482;7.120;2023-11-18T00:29:41;54.67;;;26.93;;
1054;SDS011;516;51.482;7.120;2023-11-18T00:32:09;53.00;;;27.03;;
1054;SDS011;516;51.482;7.120;2023-11-18T00:34:35;47.67;;;25.30;;
1054;SDS011;516;51.482;7.120;2023-11-18T00:37:01;50.37;;;26.00;;
1054;SDS011;516;51.482;7.120;2023-11-18T00:39:28;59.37;;;24.33;;
1054;SDS011;516;51.482;7.120;2023-11-18T00:41:55;54.40;;;25.47;;
1054;SDS011;516;51.482;7.120;2023-11-18T00:44:23;54.63;;;25.60;;
1054;SDS011;516;51.482;7.120;2023-11-18T00:46:49;49.70;;;23.07;;
1054;SDS011;516;51.482;7.120;2023-11-18T00:49:16;43.63;;;22.80;;
1054;SDS011;516;51.482;7.120;2023-11-18T00:51:43;48.17;;;24.20;;
1054;SDS011;516;51.482;7.120;2023-11-18T00:54:09;48.70;;;25.07;;
1054;SDS011;516;51.482;7.120;2023-11-18T00:56:36;43.87;;;21.17;;
1054;SDS011;516;51.482;7.120;2023-11-18T00:59:02;47.47;;;23.07;;
1054;SDS011;516;51.482;7.120;2023-11-18T01:01:28;53.73;;;27.33;;
1054;SDS011;516;51.482;7.120;2023-11-18T01:03:55;49.13;;;22.97;;
1054;SDS011;516;51.482;7.120;2023-11-18T01:06:24;42.00;;;23.17;;
1054;SDS011;516;51.482;7.120;2023-11-18T01:08:51;48.67;;;23.83;;
1054;SDS011;516;51.482;7.120;2023-11-18T01:11:18;52.43;;;23.53;;
1054;SDS011;516;51.482;7.120;2023-11-18T01:13:54;41.93;;;22.43;;
1054;SDS011;516;51.482;7.120;2023-11-18T01:16:20;50.60;;;21.57;;
1054;SDS011;516;51.482;7.120;2023-11-18T01:18:46;41.07;;;21.37;;
1054;SDS011;516;51.482;7.120;2023-11-18T01:21:14;50.27;;;22.20;;
1054;SDS011;516;51.482;7.120;2023-11-18T01:23:42;46.23;;;21.03;;
1054;SDS011;516;51.482;7.120;2023-11-18T01:26:10;48.23;;;22.10;;
1054;SDS011;516;51.482;7.120;2023-11-18T01:28:37;45.93;;;23.23;;
1054;SDS011;516;51.482;7.120;2023-11-18T01:31:08;41.20;;;22.77;;
1054;SDS011;516;51.482;7.120;2023-11-18T01:33:41;43.37;;;20.53;;
1054;SDS011;516;51.482;7.120;2023-11-18T01:36:07;39.47;;;21.27;;
1054;SDS011;516;51.482;7.120;2023-11-18T01:38:37;35.17;;;20.90;;
1054;SDS011;516;51.482;7.120;2023-11-18T01:41:06;47.03;;;21.40;;
1054;SDS011;516;51.482;7.120;2023-11-18T01:43:34;48.10;;;22.73;;
1054;SDS011;516;51.482;7.120;2023-11-18T01:46:07;41.67;;;21.80;;
1054;SDS011;516;51.482;7.120;2023-11-18T01:48:35;43.07;;;23.17;;
1054;SDS011;516;51.482;7.120;2023-11-18T01:51:02;35.93;;;19.10;;
1054;SDS011;516;51.482;7.120;2023-11-18T01:53:31;46.03;;;20.67;;
1054;SDS011;516;51.482;7.120;2023-11-18T01:55:58;41.67;;;21.87;;
1054;SDS011;516;51.482;7.120;2023-11-18T01:58:24;42.10;;;21.67;;
1054;SDS011;516;51.482;7.120;2023-11-18T02:00:51;40.60;;;21.07;;
1054;SDS011;516;51.482;7.120;2023-11-18T02:03:17;41.20;;;20.00;;
1054;SDS011;516;51.482;7.120;2023-11-18T02:05:43;35.70;;;21.70;;
1054;SDS011;516;51.482;7.120;2023-11-18T02:08:09;35.63;;;19.60;;
1054;SDS011;516;51.482;7.120;2023-11-18T02:10:45;40.00;;;20.90;;
1054;SDS011;516;51.482;7.120;2023-11-18T02:15:41;34.93;;;20.47;;
1054;SDS011;516;51.482;7.120;2023-11-18T02:18:08;44.93;;;20.60;;
1054;SDS011;516;51.482;7.120;2023-11-18T02:20:35;41.67;;;20.00;;
1054;SDS011;516;51.482;7.120;2023-11-18T02:23:02;35.13;;;19.70;;
1054;SDS011;516;51.482;7.120;2023-11-18T02:25:28;40.30;;;20.50;;
1054;SDS011;516;51.482;7.120;2023-11-18T02:27:55;35.33;;;18.80;;
1054;SDS011;516;51.482;7.120;2023-11-18T02:30:22;33.07;;;19.57;;
1054;SDS011;516;51.482;7.120;2023-11-18T02:32:51;38.30;;;21.30;;
1054;SDS011;516;51.482;7.120;2023-11-18T02:35:41;33.53;;;21.00;;
1054;SDS011;516;51.482;7.120;2023-11-18T02:38:13;39.77;;;22.43;;
1054;SDS011;516;51.482;7.120;2023-11-18T02:40:40;27.90;;;14.57;;
1054;SDS011;516;51.482;7.120;2023-11-18T02:43:09;34.93;;;17.77;;
1054;SDS011;516;51.482;7.120;2023-11-18T02:48:06;36.57;;;19.03;;
1054;SDS011;516;51.482;7.120;2023-11-18T02:50:32;35.20;;;18.77;;
1054;SDS011;516;51.482;7.120;2023-11-18T02:53:00;38.03;;;19.20;;
1054;SDS011;516;51.482;7.120;2023-11-18T02:55:27;40.13;;;21.57;;
1054;SDS011;516;51.482;7.120;2023-11-18T02:57:55;45.70;;;20.33;;
1054;SDS011;516;51.482;7.120;2023-11-18T03:00:22;33.63;;;18.63;;
1054;SDS011;516;51.482;7.120;2023-11-18T03:02:49;38.33;;;21.23;;
1054;SDS011;516;51.482;7.120;2023-11-18T03:05:16;39.03;;;20.53;;
1054;SDS011;516;51.482;7.120;2023-11-18T03:07:44;44.13;;;20.17;;
1054;SDS011;516;51.482;7.120;2023-11-18T03:10:14;38.27;;;21.40;;
1054;SDS011;516;51.482;7.120;2023-11-18T03:12:49;34.47;;;20.27;;
1054;SDS011;516;51.482;7.120;2023-11-18T03:15:16;33.50;;;19.83;;
1054;SDS011;516;51.482;7.120;2023-11-18T03:17:46;32.50;;;19.33;;
1054;SDS011;516;51.482;7.120;2023-11-18T03:20:14;31.93;;;18.97;;
1054;SDS011;516;51.482;7.120;2023-11-18T03:22:48;35.33;;;18.83;;
1054;SDS011;516;51.482;7.120;2023-11-18T03:25:17;30.57;;;19.57;;
1054;SDS011;516;51.482;7.120;2023-11-18T03:27:44;35.90;;;19.50;;
1054;SDS011;516;51.482;7.120;2023-11-18T03:30:11;33.37;;;21.03;;
1054;SDS011;516;51.482;7.120;2023-11-18T03:32:38;33.67;;;19.63;;
1054;SDS011;516;51.482;7.120;2023-11-18T03:35:05;34.60;;;20.43;;
1054;SDS011;516;51.482;7.120;2023-11-18T03:37:33;40.33;;;20.87;;
1054;SDS011;516;51.482;7.120;2023-11-18T03:40:01;35.37;;;18.33;;
1054;SDS011;516;51.482;7.120;2023-11-18T03:42:27;32.23;;;18.77;;
1054;SDS011;516;51.482;7.120;2023-11-18T03:44:54;29.80;;;19.20;;
1054;SDS011;516;51.482;7.120;2023-11-18T03:47:20;32.97;;;18.97;;
1054;SDS011;516;51.482;7.120;2023-11-18T03:49:49;30.70;;;19.67;;
1054;SDS011;516;51.482;7.120;2023-11-18T03:52:15;29.83;;;18.47;;
1054;SDS011;516;51.482;7.120;2023-11-18T03:54:41;31.00;;;19.37;;
1054;SDS011;516;51.482;7.120;2023-11-18T03:57:07;34.90;;;17.27;;
1054;SDS011;516;51.482;7.120;2023-11-18T03:59:33;33.13;;;17.37;;
1054;SDS011;516;51.482;7.120;2023-11-18T04:01:59;27.17;;;17.77;;
1054;SDS011;516;51.482;7.120;2023-11-18T04:04:26;31.43;;;18.00;;
1054;SDS011;516;51.482;7.120;2023-11-18T04:06:52;30.00;;;16.97;;
1054;SDS011;516;51.482;7.120;2023-11-18T04:09:18;36.43;;;19.97;;
1054;SDS011;516;51.482;7.120;2023-11-18T04:11:45;36.27;;;19.67;;
1054;SDS011;516;51.482;7.120;2023-11-18T04:14:11;34.23;;;19.33;;
1054;SDS011;516;51.482;7.120;2023-11-18T04:16:37;32.20;;;19.10;;
1054;SDS011;516;51.482;7.120;2023-11-18T04:19:03;33.07;;;19.90;;
1054;SDS011;516;51.482;7.120;2023-11-18T04:21:30;35.20;;;18.77;;
1054;SDS011;516;51.482;7.120;2023-11-18T04:23:56;40.77;;;20.50;;
1054;SDS011;516;51.482;7.120;2023-11-18T04:26:22;29.70;;;17.20;;
1054;SDS011;516;51.482;7.120;2023-11-18T04:28:49;34.57;;;18.10;;
1054;SDS011;516;51.482;7.120;2023-11-18T04:31:15;35.33;;;18.57;;
1054;SDS011;516;51.482;7.120;2023-11-18T04:33:41;30.17;;;16.30;;
1054;SDS011;516;51.482;7.120;2023-11-18T04:36:08;32.27;;;17.20;;
1054;SDS011;516;51.482;7.120;2023-11-18T04:38:35;34.27;;;19.87;;
1054;SDS011;516;51.482;7.120;2023-11-18T04:41:01;28.10;;;18.33;;
1054;SDS011;516;51.482;7.120;2023-11-18T04:43:28;26.57;;;17.03;;
1054;SDS011;516;51.482;7.120;2023-11-18T04:45:55;23.30;;;15.73;;
1054;SDS011;516;51.482;7.120;2023-11-18T04:48:21;28.57;;;17.33;;
1054;SDS011;516;51.482;7.120;2023-11-18T04:50:47;27.03;;;15.60;;
1054;SDS011;516;51.482;7.120;2023-11-18T04:53:13;27.13;;;17.00;;
1054;SDS011;516;51.482;7.120;2023-11-18T04:55:39;30.70;;;18.40;;
1054;SDS011;516;51.482;7.120;2023-11-18T04:58:06;28.83;;;17.57;;
1054;SDS011;516;51.482;7.120;2023-11-18T05:00:34;36.33;;;17.13;;
1054;SDS011;516;51.482;7.120;2023-11-18T05:03:00;31.30;;;16.33;;
1054;SDS011;516;51.482;7.120;2023-11-18T05:05:28;32.10;;;17.67;;
1054;SDS011;516;51.482;7.120;2023-11-18T05:07:54;31.67;;;18.10;;
1054;SDS011;516;51.482;7.120;2023-11-18T05:10:20;26.87;;;17.53;;
1054;SDS011;516;51.482;7.120;2023-11-18T05:12:47;31.13;;;17.60;;
1054;SDS011;516;51.482;7.120;2023-11-18T05:15:20;27.00;;;16.10;;
1054;SDS011;516;51.482;7.120;2023-11-18T05:17:50;34.60;;;18.07;;
1054;SDS011;516;51.482;7.120;2023-11-18T05:20:16;27.43;;;18.13;;
1054;SDS011;516;51.482;7.120;2023-11-18T05:22:42;26.50;;;16.40;;
1054;SDS011;516;51.482;7.120;2023-11-18T05:25:09;30.97;;;18.50;;
1054;SDS011;516;51.482;7.120;2023-11-18T05:27:35;33.50;;;17.70;;
1054;SDS011;516;51.482;7.120;2023-11-18T05:30:02;29.63;;;18.30;;
1054;SDS011;516;51.482;7.120;2023-11-18T05:32:32;32.17;;;17.17;;
1054;SDS011;516;51.482;7.120;2023-11-18T05:34:58;33.63;;;19.97;;
1054;SDS011;516;51.482;7.120;2023-11-18T05:37:27;29.73;;;16.33;;
1054;SDS011;516;51.482;7.120;2023-11-18T05:39:54;29.67;;;19.33;;
1054;SDS011;516;51.482;7.120;2023-11-18T05:42:31;32.13;;;16.20;;
1054;SDS011;516;51.482;7.120;2023-11-18T05:44:59;24.20;;;16.30;;
1054;SDS011;516;51.482;7.120;2023-11-18T05:47:26;27.87;;;17.17;;
1054;SDS011;516;51.482;7.120;2023-11-18T05:49:52;31.87;;;14.70;;
1054;SDS011;516;51.482;7.120;2023-11-18T05:52:19;34.10;;;18.30;;
1054;SDS011;516;51.482;7.120;2023-11-18T05:54:48;37.20;;;18.30;;
1054;SDS011;516;51.482;7.120;2023-11-18T05:57:15;29.30;;;16.90;;
1054;SDS011;516;51.482;7.120;2023-11-18T05:59:44;39.20;;;19.13;;
1054;SDS011;516;51.482;7.120;2023-11-18T06:02:11;37.67;;;17.27;;
1054;SDS011;516;51.482;7.120;2023-11-18T06:04:42;30.13;;;17.30;;
1054;SDS011;516;51.482;7.120;2023-11-18T06:07:09;29.10;;;15.67;;
1054;SDS011;516;51.482;7.120;2023-11-18T06:09:38;28.63;;;17.03;;
1054;SDS011;516;51.482;7.120;2023-11-18T06:12:04;29.37;;;18.00;;
1054;SDS011;516;51.482;7.120;2023-11-18T06:14:34;38.97;;;19.70;;
1054;SDS011;516;51.482;7.120;2023-11-18T06:17:00;23.30;;;14.83;;
1054;SDS011;516;51.482;7.120;2023-11-18T06:19:26;26.67;;;16.70;;
1054;SDS011;516;51.482;7.120;2023-11-18T06:21:52;28.23;;;17.10;;
1054;SDS011;516;51.482;7.120;2023-11-18T06:24:19;29.37;;;18.70;;
1054;SDS011;516;51.482;7.120;2023-11-18T06:26:46;42.63;;;20.23;;
1054;SDS011;516;51.482;7.120;2023-11-18T06:29:14;37.70;;;21.00;;
1054;SDS011;516;51.482;7.120;2023-11-18T06:31:42;32.67;;;19.60;;
1054;SDS011;516;51.482;7.120;2023-11-18T06:34:08;36.90;;;21.33;;
1054;SDS011;516;51.482;7.120;2023-11-18T06:36:34;33.50;;;17.13;;
1054;SDS011;516;51.482;7.120;2023-11-18T06:39:00;26.73;;;16.23;;
1054;SDS011;516;51.482;7.120;2023-11-18T06:41:26;37.63;;;20.70;;
1054;SDS011;516;51.482;7.120;2023-11-18T06:43:58;35.60;;;19.50;;
1054;SDS011;516;51.482;7.120;2023-11-18T06:46:29;30.83;;;19.73;;
1054;SDS011;516;51.482;7.120;2023-11-18T06:48:58;31.50;;;17.90;;
1054;SDS011;516;51.482;7.120;2023-11-18T06:51:25;32.37;;;18.90;;
1054;SDS011;516;51.482;7.120;2023-11-18T06:53:55;31.23;;;19.30;;
1054;SDS011;516;51.482;7.120;2023-11-18T06:56:25;41.50;;;21.83;;
1054;SDS011;516;51.482;7.120;2023-11-18T06:58:51;35.30;;;19.70;;
1054;SDS011;516;51.482;7.120;2023-11-18T07:01:18;29.77;;;17.43;;
1054;SDS011;516;51.482;7.120;2023-11-18T07:03:44;35.63;;;19.63;;
1054;SDS011;516;51.482;7.120;2023-11-18T07:06:16;33.17;;;18.47;;
1054;SDS011;516;51.482;7.120;2023-11-18T07:08:47;29.27;;;17.40;;
1054;SDS011;516;51.482;7.120;2023-11-18T07:11:14;42.27;;;18.83;;
1054;SDS011;516;51.482;7.120;2023-11-18T07:13:40;32.30;;;18.50;;
1054;SDS011;516;51.482;7.120;2023-11-18T07:16:07;31.57;;;20.00;;
1054;SDS011;516;51.482;7.120;2023-11-18T07:18:34;33.30;;;17.67;;
1054;SDS011;516;51.482;7.120;2023-11-18T07:21:00;28.27;;;17.33;;
1054;SDS011;516;51.482;7.120;2023-11-18T07:23:28;36.10;;;18.47;;
1054;SDS011;516;51.482;7.120;2023-11-18T07:25:54;32.60;;;17.13;;
1054;SDS011;516;51.482;7.120;2023-11-18T07:28:21;38.83;;;19.43;;
1054;SDS011;516;51.482;7.120;2023-11-18T07:30:47;35.80;;;18.20;;
1054;SDS011;516;51.482;7.120;2023-11-18T07:33:14;30.87;;;17.57;;
1054;SDS011;516;51.482;7.120;2023-11-18T07:35:41;31.10;;;17.90;;
1054;SDS011;516;51.482;7.120;2023-11-18T07:38:07;37.53;;;17.73;;
1054;SDS011;516;51.482;7.120;2023-11-18T07:40:39;30.70;;;18.83;;
1054;SDS011;516;51.482;7.120;2023-11-18T07:43:17;38.93;;;21.20;;
1054;SDS011;516;51.482;7.120;2023-11-18T07:45:47;30.17;;;18.17;;
1054;SDS011;516;51.482;7.120;2023-11-18T07:48:18;30.50;;;16.50;;
1054;SDS011;516;51.482;7.120;2023-11-18T07:50:47;34.80;;;18.80;;
1054;SDS011;516;51.482;7.120;2023-11-18T07:53:13;30.33;;;17.27;;
1054;SDS011;516;51.482;7.120;2023-11-18T07:55:40;31.37;;;17.13;;
1054;SDS011;516;51.482;7.120;2023-11-18T07:58:10;29.53;;;15.10;;
1054;SDS011;516;51.482;7.120;2023-11-18T08:00:40;33.50;;;17.60;;
1054;SDS011;516;51.482;7.120;2023-11-18T08:03:07;35.43;;;17.40;;
1054;SDS011;516;51.482;7.120;2023-11-18T08:05:38;31.03;;;16.53;;
1054;SDS011;516;51.482;7.120;2023-11-18T08:08:06;27.97;;;17.07;;
1054;SDS011;516;51.482;7.120;2023-11-18T08:10:34;31.77;;;16.93;;
1054;SDS011;516;51.482;7.120;2023-11-18T08:13:04;38.33;;;17.00;;
1054;SDS011;516;51.482;7.120;2023-11-18T08:15:33;29.10;;;15.13;;
1054;SDS011;516;51.482;7.120;2023-11-18T08:17:59;25.63;;;16.37;;
1054;SDS011;516;51.482;7.120;2023-11-18T08:20:25;28.47;;;15.57;;
1054;SDS011;516;51.482;7.120;2023-11-18T08:22:52;31.43;;;16.73;;
1054;SDS011;516;51.482;7.120;2023-11-18T08:25:19;26.07;;;16.50;;
1054;SDS011;516;51.482;7.120;2023-11-18T08:27:45;29.20;;;16.20;;
1054;SDS011;516;51.482;7.120;2023-11-18T08:30:11;31.30;;;15.40;;
1054;SDS011;516;51.482;7.120;2023-11-18T08:32:39;26.60;;;17.20;;
1054;SDS011;516;51.482;7.120;2023-11-18T08:35:07;27.33;;;14.53;;
1054;SDS011;516;51.482;7.120;2023-11-18T08:37:36;28.40;;;15.77;;
1054;SDS011;516;51.482;7.120;2023-11-18T08:40:03;35.37;;;18.97;;
1054;SDS011;516;51.482;7.120;2023-11-18T08:42:49;24.03;;;13.20;;
1054;SDS011;516;51.482;7.120;2023-11-18T08:45:19;23.67;;;14.30;;
1054;SDS011;516;51.482;7.120;2023-11-18T08:48:01;25.43;;;14.00;;
1054;SDS011;516;51.482;7.120;2023-11-18T08:50:32;23.63;;;12.10;;
1054;SDS011;516;51.482;7.120;2023-11-18T08:52:58;28.07;;;13.23;;
1054;SDS011;516;51.482;7.120;2023-11-18T08:55:26;18.37;;;11.83;;
1054;SDS011;516;51.482;7.120;2023-11-18T08:58:05;21.53;;;11.80;;
1054;SDS011;516;51.482;7.120;2023-11-18T09:00:41;21.83;;;12.43;;
1054;SDS011;516;51.482;7.120;2023-11-18T09:03:29;19.90;;;11.77;;
1054;SDS011;516;51.482;7.120;2023-11-18T09:06:01;20.17;;;12.43;;
1054;SDS011;516;51.482;7.120;2023-11-18T09:08:35;17.37;;;11.33;;
1054;SDS011;516;51.482;7.120;2023-11-18T09:11:02;17.97;;;10.30;;
1054;SDS011;516;51.482;7.120;2023-11-18T09:13:30;19.10;;;11.77;;
1054;SDS011;516;51.482;7.120;2023-11-18T09:15:59;25.97;;;11.77;;
1054;SDS011;516;51.482;7.120;2023-11-18T09:18:26;19.77;;;11.43;;
1054;SDS011;516;51.482;7.120;2023-11-18T09:21:00;23.73;;;12.93;;
1054;SDS011;516;51.482;7.120;2023-11-18T09:23:26;17.73;;;12.33;;
1054;SDS011;516;51.482;7.120;2023-11-18T09:25:55;17.57;;;10.03;;
1054;SDS011;516;51.482;7.120;2023-11-18T09:28:22;14.47;;;9.40;;
1054;SDS011;516;51.482;7.120;2023-11-18T09:30:49;18.37;;;10.17;;
1054;SDS011;516;51.482;7.120;2023-11-18T09:33:21;18.93;;;11.47;;
1054;SDS011;516;51.482;7.120;2023-11-18T09:36:00;16.70;;;10.03;;
1054;SDS011;516;51.482;7.120;2023-11-18T09:38:28;12.77;;;7.80;;
1054;SDS011;516;51.482;7.120;2023-11-18T09:40:55;17.70;;;10.03;;
1054;SDS011;516;51.482;7.120;2023-11-18T09:43:23;19.50;;;9.70;;
1054;SDS011;516;51.482;7.120;2023-11-18T09:45:54;19.40;;;8.80;;
1054;SDS011;516;51.482;7.120;2023-11-18T09:48:20;19.30;;;10.03;;
1054;SDS011;516;51.482;7.120;2023-11-18T09:50:51;15.57;;;10.17;;
1054;SDS011;516;51.482;7.120;2023-11-18T09:53:18;12.23;;;8.07;;
1054;SDS011;516;51.482;7.120;2023-11-18T09:55:56;16.80;;;7.47;;
1054;SDS011;516;51.482;7.120;2023-11-18T09:58:26;17.67;;;9.10;;
1054;SDS011;516;51.482;7.120;2023-11-18T10:00:57;16.53;;;10.13;;
1054;SDS011;516;51.482;7.120;2023-11-18T10:03:27;12.90;;;7.97;;
1054;SDS011;516;51.482;7.120;2023-11-18T10:05:54;13.00;;;9.20;;
1054;SDS011;516;51.482;7.120;2023-11-18T10:08:21;12.00;;;7.13;;
1054;SDS011;516;51.482;7.120;2023-11-18T10:10:51;9.23;;;6.13;;
1054;SDS011;516;51.482;7.120;2023-11-18T10:13:30;10.60;;;7.00;;
1054;SDS011;516;51.482;7.120;2023-11-18T10:15:57;9.70;;;7.27;;
1054;SDS011;516;51.482;7.120;2023-11-18T10:18:24;15.57;;;9.00;;
1054;SDS011;516;51.482;7.120;2023-11-18T10:20:53;11.00;;;8.43;;
1054;SDS011;516;51.482;7.120;2023-11-18T10:23:20;13.50;;;8.03;;
1054;SDS011;516;51.482;7.120;2023-11-18T10:25:54;12.60;;;7.80;;
1054;SDS011;516;51.482;7.120;2023-11-18T10:28:25;14.63;;;7.90;;
1054;SDS011;516;51.482;7.120;2023-11-18T10:31:00;11.37;;;7.70;;
1054;SDS011;516;51.482;7.120;2023-11-18T10:33:33;12.60;;;7.40;;
1054;SDS011;516;51.482;7.120;2023-11-18T10:36:01;11.50;;;7.63;;
1054;SDS011;516;51.482;7.120;2023-11-18T10:38:32;7.90;;;6.77;;
1054;SDS011;516;51.482;7.120;2023-11-18T10:41:01;12.23;;;8.03;;
1054;SDS011;516;51.482;7.120;2023-11-18T10:43:28;18.33;;;8.77;;
1054;SDS011;516;51.482;7.120;2023-11-18T10:46:09;12.40;;;8.60;;
1054;SDS011;516;51.482;7.120;2023-11-18T10:48:39;16.40;;;8.13;;
1054;SDS011;516;51.482;7.120;2023-11-18T10:51:10;17.37;;;10.27;;
1054;SDS011;516;51.482;7.120;2023-11-18T10:53:38;9.17;;;5.80;;
1054;SDS011;516;51.482;7.120;2023-11-18T10:56:16;7.80;;;5.77;;
1054;SDS011;516;51.482;7.120;2023-11-18T10:58:44;12.93;;;7.13;;
1054;SDS011;516;51.482;7.120;2023-11-18T11:01:11;12.30;;;7.83;;
1054;SDS011;516;51.482;7.120;2023-11-18T11:03:53;13.43;;;7.23;;
1054;SDS011;516;51.482;7.120;2023-11-18T11:06:23;10.23;;;7.30;;
1054;SDS011;516;51.482;7.120;2023-11-18T11:08:50;9.37;;;6.80;;
1054;SDS011;516;51.482;7.120;2023-11-18T11:11:19;9.17;;;7.20;;
1054;SDS011;516;51.482;7.120;2023-11-18T11:13:49;9.00;;;7.10;;
1054;SDS011;516;51.482;7.120;2023-11-18T11:16:20;10.60;;;6.03;;
1054;SDS011;516;51.482;7.120;2023-11-18T11:18:52;7.00;;;5.70;;
1054;SDS011;516;51.482;7.120;2023-11-18T11:21:24;12.30;;;6.03;;
1054;SDS011;516;51.482;7.120;2023-11-18T11:23:55;9.43;;;6.07;;
1054;SDS011;516;51.482;7.120;2023-11-18T11:26:41;9.60;;;7.50;;
1054;SDS011;516;51.482;7.120;2023-11-18T11:32:06;7.00;;;4.70;;
1054;SDS011;516;51.482;7.120;2023-11-18T11:34:43;12.10;;;4.53;;
1054;SDS011;516;51.482;7.120;2023-11-18T11:37:14;9.47;;;6.37;;
1054;SDS011;516;51.482;7.120;2023-11-18T11:39:41;7.07;;;5.97;;
1054;SDS011;516;51.482;7.120;2023-11-18T11:42:22;10.30;;;5.93;;
1054;SDS011;516;51.482;7.120;2023-11-18T11:44:50;6.50;;;4.30;;
1054;SDS011;516;51.482;7.120;2023-11-18T11:47:21;9.93;;;5.80;;
1054;SDS011;516;51.482;7.120;2023-11-18T11:49:50;9.30;;;5.07;;
1054;SDS011;516;51.482;7.120;2023-11-18T11:52:30;11.30;;;6.37;;
1054;SDS011;516;51.482;7.120;2023-11-18T11:55:08;9.80;;;5.43;;
1054;SDS011;516;51.482;7.120;2023-11-18T11:57:38;6.47;;;5.60;;
1054;SDS011;516;51.482;7.120;2023-11-18T12:00:08;10.93;;;5.20;;
1054;SDS011;516;51.482;7.120;2023-11-18T12:02:50;8.13;;;4.93;;
1054;SDS011;516;51.482;7.120;2023-11-18T12:05:20;8.13;;;5.10;;
1054;SDS011;516;51.482;7.120;2023-11-18T12:07:51;9.17;;;5.03;;
1054;SDS011;516;51.482;7.120;2023-11-18T12:10:20;6.03;;;4.60;;
1054;SDS011;516;51.482;7.120;2023-11-18T12:12:47;7.90;;;5.43;;
1054;SDS011;516;51.482;7.120;2023-11-18T12:15:13;6.87;;;4.57;;
1054;SDS011;516;51.482;7.120;2023-11-18T12:23:21;8.17;;;5.27;;
1054;SDS011;516;51.482;7.120;2023-11-18T12:25:50;5.60;;;4.30;;
1054;SDS011;516;51.482;7.120;2023-11-18T12:28:21;10.20;;;6.77;;
1054;SDS011;516;51.482;7.120;2023-11-18T12:30:51;10.50;;;5.70;;
1054;SDS011;516;51.482;7.120;2023-11-18T12:33:20;7.53;;;5.63;;
1054;SDS011;516;51.482;7.120;2023-11-18T12:39:14;5.80;;;4.13;;
1054;SDS011;516;51.482;7.120;2023-11-18T12:44:05;7.47;;;6.47;;
1054;SDS011;516;51.482;7.120;2023-11-18T12:46:54;11.37;;;5.93;;
1054;SDS011;516;51.482;7.120;2023-11-18T12:49:22;9.87;;;5.70;;
1054;SDS011;516;51.482;7.120;2023-11-18T12:51:55;6.10;;;5.03;;
1054;SDS011;516;51.482;7.120;2023-11-18T12:54:22;5.67;;;5.00;;
1054;SDS011;516;51.482;7.120;2023-11-18T12:56:55;8.80;;;6.10;;
1054;SDS011;516;51.482;7.120;2023-11-18T12:59:22;6.43;;;5.10;;
1054;SDS011;516;51.482;7.120;2023-11-18T13:01:48;12.53;;;5.70;;
1054;SDS011;516;51.482;7.120;2023-11-18T13:04:27;6.97;;;5.47;;
1054;SDS011;516;51.482;7.120;2023-11-18T13:06:53;8.37;;;5.67;;
1054;SDS011;516;51.482;7.120;2023-11-18T13:09:23;8.53;;;6.50;;
1054;SDS011;516;51.482;7.120;2023-11-18T13:11:58;13.53;;;5.10;;
1054;SDS011;516;51.482;7.120;2023-11-18T13:14:29;9.00;;;5.93;;
1054;SDS011;516;51.482;7.120;2023-11-18T13:16:56;8.23;;;5.03;;
1054;SDS011;516;51.482;7.120;2023-11-18T13:19:26;6.00;;;4.17;;
1054;SDS011;516;51.482;7.120;2023-11-18T13:21:59;8.70;;;4.30;;
1054;SDS011;516;51.482;7.120;2023-11-18T13:24:28;8.40;;;6.10;;
1054;SDS011;516;51.482;7.120;2023-11-18T13:26:55;8.47;;;5.37;;
1054;SDS011;516;51.482;7.120;2023-11-18T13:29:22;10.13;;;5.87;;
1054;SDS011;516;51.482;7.120;2023-11-18T13:31:50;11.70;;;5.87;;
1054;SDS011;516;51.482;7.120;2023-11-18T13:34:19;11.90;;;5.00;;
1054;SDS011;516;51.482;7.120;2023-11-18T13:36:49;6.40;;;4.77;;
1054;SDS011;516;51.482;7.120;2023-11-18T13:39:19;7.23;;;5.00;;
1054;SDS011;516;51.482;7.120;2023-11-18T13:41:47;7.80;;;5.13;;
1054;SDS011;516;51.482;7.120;2023-11-18T13:44:36;6.23;;;4.47;;
1054;SDS011;516;51.482;7.120;2023-11-18T13:47:03;8.57;;;5.33;;
1054;SDS011;516;51.482;7.120;2023-11-18T13:49:33;8.17;;;5.30;;
1054;SDS011;516;51.482;7.120;2023-11-18T13:52:00;8.20;;;5.00;;
1054;SDS011;516;51.482;7.120;2023-11-18T13:54:29;10.87;;;6.90;;
1054;SDS011;516;51.482;7.120;2023-11-18T13:56:58;6.53;;;4.40;;
1054;SDS011;516;51.482;7.120;2023-11-18T13:59:24;5.40;;;4.27;;
1054;SDS011;516;51.482;7.120;2023-11-18T14:01:52;7.33;;;5.47;;
1054;SDS011;516;51.482;7.120;2023-11-18T14:04:18;7.37;;;5.27;;
1054;SDS011;516;51.482;7.120;2023-11-18T14:06:44;9.50;;;4.77;;
1054;SDS011;516;51.482;7.120;2023-11-18T14:09:11;9.17;;;4.70;;
1054;SDS011;516;51.482;7.120;2023-11-18T14:11:37;6.13;;;4.30;;
1054;SDS011;516;51.482;7.120;2023-11-18T14:14:03;9.93;;;4.83;;
1054;SDS011;516;51.482;7.120;2023-11-18T14:16:29;9.23;;;4.43;;
1054;SDS011;516;51.482;7.120;2023-11-18T14:18:55;4.70;;;3.20;;
1054;SDS011;516;51.482;7.120;2023-11-18T14:21:23;6.30;;;4.20;;
1054;SDS011;516;51.482;7.120;2023-11-18T14:23:50;11.07;;;4.63;;
1054;SDS011;516;51.482;7.120;2023-11-18T14:26:17;5.87;;;3.83;;
1054;SDS011;516;51.482;7.120;2023-11-18T14:28:43;6.83;;;4.00;;
1054;SDS011;516;51.482;7.120;2023-11-18T14:31:09;6.10;;;3.73;;
1054;SDS011;516;51.482;7.120;2023-11-18T14:33:37;12.10;;;3.37;;
1054;SDS011;516;51.482;7.120;2023-11-18T14:36:03;6.87;;;4.33;;
1054;SDS011;516;51.482;7.120;2023-11-18T14:38:30;11.90;;;4.07;;
1054;SDS011;516;51.482;7.120;2023-11-18T14:40:56;6.57;;;4.53;;
1054;SDS011;516;51.482;7.120;2023-11-18T14:43:23;5.17;;;4.13;;
1054;SDS011;516;51.482;7.120;2023-11-18T14:45:49;7.90;;;5.00;;
1054;SDS011;516;51.482;7.120;2023-11-18T14:48:15;4.03;;;3.03;;
1054;SDS011;516;51.482;7.120;2023-11-18T14:50:41;7.37;;;4.37;;
1054;SDS011;516;51.482;7.120;2023-11-18T14:53:09;6.93;;;3.80;;
1054;SDS011;516;51.482;7.120;2023-11-18T14:55:35;6.33;;;4.07;;
1054;SDS011;516;51.482;7.120;2023-11-18T14:58:02;8.73;;;4.53;;
1054;SDS011;516;51.482;7.120;2023-11-18T15:00:29;5.73;;;2.63;;
1054;SDS011;516;51.482;7.120;2023-11-18T15:02:58;9.20;;;4.17;;
1054;SDS011;516;51.482;7.120;2023-11-18T15:05:25;8.30;;;3.83;;
1054;SDS011;516;51.482;7.120;2023-11-18T15:07:53;5.03;;;3.40;;
1054;SDS011;516;51.482;7.120;2023-11-18T15:10:20;5.50;;;3.73;;
1054;SDS011;516;51.482;7.120;2023-11-18T15:13:08;5.97;;;3.93;;
1054;SDS011;516;51.482;7.120;2023-11-18T15:15:42;6.30;;;3.90;;
1054;SDS011;516;51.482;7.120;2023-11-18T15:18:08;3.83;;;3.10;;
1054;SDS011;516;51.482;7.120;2023-11-18T15:20:38;6.10;;;3.53;;
1054;SDS011;516;51.482;7.120;2023-11-18T15:23:08;6.40;;;4.00;;
1054;SDS011;516;51.482;7.120;2023-11-18T15:25:34;4.50;;;3.50;;
1054;SDS011;516;51.482;7.120;2023-11-18T15:28:00;5.70;;;2.70;;
1054;SDS011;516;51.482;7.120;2023-11-18T15:30:26;5.00;;;3.10;;
1054;SDS011;516;51.482;7.120;2023-11-18T15:32:52;3.30;;;2.27;;
1054;SDS011;516;51.482;7.120;2023-11-18T15:35:18;6.10;;;3.00;;
1054;SDS011;516;51.482;7.120;2023-11-18T15:37:47;11.03;;;3.93;;